createdAt,value
2019-06-15T00:00:36.766Z,19.73
2019-06-15T00:03:08.282Z,19.60
2019-06-15T00:05:38.992Z,19.62
2019-06-15T00:08:12.432Z,19.62
2019-06-15T00:10:44.548Z,19.48
2019-06-15T00:13:19.614Z,19.41
2019-06-15T00:15:51.435Z,18.94
2019-06-15T00:18:28.245Z,19.47
2019-06-15T00:21:01.601Z,19.60
2019-06-15T00:23:40.921Z,19.74
2019-06-15T00:26:14.710Z,19.77
2019-06-15T00:28:45.448Z,19.73
2019-06-15T00:31:16.652Z,19.18
2019-06-15T00:33:46.954Z,19.00
2019-06-15T00:36:19.034Z,19.53
2019-06-15T00:38:49.799Z,19.38
2019-06-15T00:41:20.960Z,19.17
2019-06-15T00:43:55.211Z,18.86
2019-06-15T00:46:26.089Z,19.17
2019-06-15T00:48:59.374Z,19.14
2019-06-15T00:51:34.923Z,19.08
2019-06-15T00:54:05.516Z,19.15
2019-06-15T00:56:36.963Z,18.85
2019-06-15T00:59:11.092Z,18.93
2019-06-15T01:01:41.340Z,19.23
2019-06-15T01:04:16.819Z,18.96
2019-06-15T01:06:56.614Z,19.51
2019-06-15T01:09:27.160Z,19.10
2019-06-15T01:11:57.608Z,18.76
2019-06-15T01:14:28.060Z,18.78
2019-06-15T01:16:58.682Z,18.83
2019-06-15T01:19:37.142Z,18.91
2019-06-15T01:22:07.869Z,18.83
2019-06-15T01:24:37.578Z,19.44
2019-06-15T01:27:10.628Z,19.65
2019-06-15T01:29:40.360Z,19.53
2019-06-15T01:32:10.020Z,19.52
2019-06-15T01:34:39.685Z,19.28
2019-06-15T01:37:09.438Z,19.27
2019-06-15T01:39:39.312Z,19.13
2019-06-15T01:42:09.039Z,19.08
2019-06-15T01:44:38.812Z,19.22
2019-06-15T01:47:08.572Z,18.96
2019-06-15T01:49:38.332Z,18.81
2019-06-15T01:52:08.117Z,18.85
2019-06-15T01:54:37.866Z,18.73
2019-06-15T01:57:08.621Z,18.89
2019-06-15T01:59:38.328Z,18.86
2019-06-15T02:02:08.124Z,18.55
2019-06-15T02:04:37.903Z,18.63
2019-06-15T02:07:07.625Z,18.40
2019-06-15T02:09:38.770Z,18.40
2019-06-15T02:12:08.585Z,18.38
2019-06-15T02:14:38.281Z,18.29
2019-06-15T02:17:07.960Z,18.46
2019-06-15T02:19:37.617Z,18.33
2019-06-15T02:22:07.322Z,18.61
2019-06-15T02:24:36.992Z,18.32
2019-06-15T02:27:06.778Z,18.42
2019-06-15T02:29:36.447Z,18.36
2019-06-15T02:32:06.312Z,18.62
2019-06-15T02:34:35.971Z,18.40
2019-06-15T02:37:05.773Z,18.37
2019-06-15T02:39:35.533Z,18.24
2019-06-15T02:42:05.507Z,18.12
2019-06-15T02:44:35.315Z,18.30
2019-06-15T02:47:05.095Z,18.24
2019-06-15T02:49:34.795Z,18.64
2019-06-15T02:52:04.648Z,18.79
2019-06-15T02:54:34.495Z,18.26
2019-06-15T02:57:04.138Z,18.29
2019-06-15T02:59:33.931Z,18.32
2019-06-15T03:02:03.705Z,18.62
2019-06-15T03:04:33.439Z,18.44
2019-06-15T03:07:03.102Z,18.59
2019-06-15T03:09:32.813Z,18.36
2019-06-15T03:12:02.542Z,17.97
2019-06-15T03:14:32.156Z,18.25
2019-06-15T03:17:01.799Z,18.50
2019-06-15T03:19:31.405Z,18.52
2019-06-15T03:22:01.053Z,18.57
2019-06-15T03:24:30.684Z,18.60
2019-06-15T03:27:00.469Z,18.11
2019-06-15T03:29:30.213Z,18.28
2019-06-15T03:31:59.909Z,18.37
2019-06-15T03:34:29.669Z,18.82
2019-06-15T03:36:59.419Z,18.73
2019-06-15T03:39:29.199Z,18.45
2019-06-15T03:41:59.249Z,18.35
2019-06-15T03:44:28.948Z,18.20
2019-06-15T03:46:58.628Z,18.24
2019-06-15T03:49:28.327Z,18.53
2019-06-15T03:51:58.033Z,18.47
2019-06-15T03:54:27.811Z,18.31
2019-06-15T03:56:57.586Z,18.70
2019-06-15T03:59:27.274Z,18.83
2019-06-15T04:01:56.940Z,18.77
2019-06-15T04:04:26.634Z,18.61
2019-06-15T04:06:56.345Z,18.72
2019-06-15T04:09:26.256Z,18.55
2019-06-15T04:11:55.924Z,18.53
2019-06-15T04:14:25.575Z,18.69
2019-06-15T04:16:55.409Z,19.13
2019-06-15T04:19:25.072Z,19.03
2019-06-15T04:21:56.172Z,19.33
2019-06-15T04:24:25.831Z,19.34
2019-06-15T04:26:55.506Z,19.54
2019-06-15T04:29:25.328Z,19.07
2019-06-15T04:31:54.964Z,19.02
2019-06-15T04:34:24.602Z,19.44
2019-06-15T04:36:54.740Z,19.64
2019-06-15T04:39:24.387Z,19.43
2019-06-15T04:41:54.008Z,19.98
2019-06-15T04:44:23.604Z,19.75
2019-06-15T04:46:53.332Z,19.77
2019-06-15T04:49:23.049Z,19.78
2019-06-15T04:51:52.708Z,20.07
2019-06-15T04:54:22.545Z,19.79
2019-06-15T04:56:52.344Z,19.55
2019-06-15T04:59:22.131Z,19.56
2019-06-15T05:01:51.907Z,19.66
2019-06-15T05:04:21.723Z,19.76
2019-06-15T05:06:51.490Z,19.83
2019-06-15T05:09:21.450Z,19.75
2019-06-15T05:11:51.493Z,20.25
2019-06-15T05:14:21.548Z,20.28
2019-06-15T05:16:53.397Z,20.25
2019-06-15T05:19:23.280Z,20.07
2019-06-15T05:21:53.349Z,20.11
2019-06-15T05:24:23.308Z,20.11
2019-06-15T05:27:05.596Z,20.39
2019-06-15T05:29:24.885Z,20.74
2019-06-15T05:31:54.840Z,20.33
2019-06-15T05:34:24.676Z,20.55
2019-06-15T05:36:54.336Z,20.45
2019-06-15T05:39:23.952Z,20.56
2019-06-15T05:41:53.599Z,20.61
2019-06-15T05:44:23.308Z,20.29
2019-06-15T05:46:53.084Z,20.26
2019-06-15T05:49:23.455Z,20.03
2019-06-15T05:51:53.487Z,19.94
2019-06-15T05:54:23.220Z,20.08
2019-06-15T05:56:52.849Z,20.27
2019-06-15T05:59:22.448Z,20.38
2019-06-15T06:01:52.155Z,20.17
2019-06-15T06:04:21.938Z,20.52
2019-06-15T06:06:51.662Z,20.78
2019-06-15T06:09:21.414Z,20.45
2019-06-15T06:11:51.063Z,20.21
2019-06-15T06:14:20.893Z,20.62
2019-06-15T06:16:50.553Z,20.47
2019-06-15T06:19:20.350Z,20.60
2019-06-15T06:21:50.142Z,20.70
2019-06-15T06:24:19.841Z,20.49
2019-06-15T06:26:49.524Z,20.67
2019-06-15T06:29:19.414Z,20.66
2019-06-15T06:31:49.074Z,20.57
2019-06-15T06:34:18.663Z,20.90
2019-06-15T06:36:48.350Z,21.18
2019-06-15T06:39:18.123Z,21.16
2019-06-15T06:41:47.766Z,21.43
2019-06-15T06:44:17.518Z,21.74
2019-06-15T06:46:47.377Z,20.93
2019-06-15T06:49:17.172Z,20.82
2019-06-15T06:51:48.026Z,20.75
2019-06-15T06:54:17.860Z,20.52
2019-06-15T06:56:48.518Z,20.75
2019-06-15T06:59:18.568Z,20.52
2019-06-15T07:01:48.622Z,20.45
2019-06-15T07:04:18.272Z,20.51
2019-06-15T07:06:47.923Z,20.25
2019-06-15T07:09:17.773Z,20.18
2019-06-15T07:11:47.582Z,19.95
2019-06-15T07:14:17.682Z,20.36
2019-06-15T07:16:47.436Z,20.34
2019-06-15T07:19:17.211Z,20.38
2019-06-15T07:21:46.885Z,20.08
2019-06-15T07:24:16.489Z,19.87
2019-06-15T07:26:46.211Z,19.81
2019-06-15T07:29:15.964Z,19.47
2019-06-15T07:31:59.973Z,19.75
2019-06-15T07:34:29.975Z,19.36
2019-06-15T07:37:01.602Z,19.26
2019-06-15T07:39:31.010Z,19.44
2019-06-15T07:42:00.733Z,19.21
2019-06-15T07:44:30.406Z,19.14
2019-06-15T07:47:00.112Z,18.89
2019-06-15T07:49:29.736Z,19.28
2019-06-15T07:51:59.625Z,19.15
2019-06-15T07:54:29.299Z,19.05
2019-06-15T07:56:59.033Z,19.09
2019-06-15T07:59:28.744Z,19.13
2019-06-15T08:01:58.525Z,19.26
2019-06-15T08:04:28.281Z,19.23
2019-06-15T08:06:57.942Z,19.37
2019-06-15T08:09:27.727Z,19.57
2019-06-15T08:11:57.498Z,19.58
2019-06-15T08:14:27.382Z,19.80
2019-06-15T08:16:57.169Z,19.82
2019-06-15T08:19:26.970Z,19.63
2019-06-15T08:21:56.699Z,19.64
2019-06-15T08:24:26.516Z,19.82
2019-06-15T08:26:57.190Z,20.99
2019-06-15T08:29:26.976Z,21.64
2019-06-15T08:31:56.771Z,23.41
2019-06-15T08:34:26.455Z,25.20
2019-06-15T08:36:56.112Z,26.12
2019-06-15T08:39:26.082Z,27.06
2019-06-15T08:41:57.021Z,25.51
2019-06-15T08:44:26.741Z,26.14
2019-06-15T08:46:59.218Z,24.91
2019-06-15T08:49:27.883Z,23.99
2019-06-15T08:51:57.844Z,24.10
2019-06-15T08:54:27.556Z,24.77
2019-06-15T08:56:57.367Z,26.01
2019-06-15T08:59:27.031Z,26.66
2019-06-15T09:01:56.827Z,25.09
2019-06-15T09:04:26.463Z,25.11
2019-06-15T09:06:56.154Z,27.43
2019-06-15T09:09:26.866Z,27.62
2019-06-15T09:11:56.559Z,25.87
2019-06-15T09:14:26.242Z,24.91
2019-06-15T09:16:55.984Z,26.56
2019-06-15T09:19:25.742Z,27.11
2019-06-15T09:21:55.425Z,25.64
2019-06-15T09:24:25.242Z,24.88
2019-06-15T09:26:54.930Z,23.48
2019-06-15T09:29:24.633Z,22.58
2019-06-15T09:31:54.393Z,22.18
2019-06-15T09:34:24.241Z,22.62
2019-06-15T09:36:55.126Z,22.45
2019-06-15T09:39:24.965Z,22.24
2019-06-15T09:41:54.866Z,21.68
2019-06-15T09:44:24.493Z,21.73
2019-06-15T09:46:54.928Z,21.88
2019-06-15T09:49:24.837Z,21.81
2019-06-15T09:51:54.538Z,21.41
2019-06-15T09:54:24.186Z,21.54
2019-06-15T09:56:54.034Z,21.39
2019-06-15T09:59:26.307Z,21.18
2019-06-15T10:01:55.904Z,21.08
2019-06-15T10:04:27.272Z,21.07
2019-06-15T10:06:58.109Z,20.86
2019-06-15T10:09:27.798Z,21.13
2019-06-15T10:11:57.940Z,21.67
2019-06-15T10:14:27.792Z,21.96
2019-06-15T10:16:57.686Z,22.13
2019-06-15T10:19:27.276Z,22.37
2019-06-15T10:21:57.238Z,21.84
2019-06-15T10:24:27.847Z,22.03
2019-06-15T10:26:57.565Z,22.17
2019-06-15T10:29:41.291Z,22.07
2019-06-15T10:31:59.052Z,22.10
2019-06-15T10:34:28.910Z,22.06
2019-06-15T10:36:58.659Z,21.71
2019-06-15T10:39:28.337Z,21.99
2019-06-15T10:41:57.988Z,22.38
2019-06-15T10:44:28.032Z,23.33
2019-06-15T10:46:58.001Z,22.95
2019-06-15T10:49:28.090Z,22.40
2019-06-15T10:51:57.813Z,22.24
2019-06-15T10:54:27.670Z,22.52
2019-06-15T10:56:58.159Z,23.02
2019-06-15T10:59:30.102Z,23.47
2019-06-15T11:01:59.862Z,23.32
2019-06-15T11:04:29.618Z,23.66
2019-06-15T11:07:00.278Z,23.54
2019-06-15T11:09:30.115Z,23.71
2019-06-15T11:11:59.919Z,24.02
2019-06-15T11:14:29.662Z,24.13
2019-06-15T11:17:00.670Z,23.63
2019-06-15T11:19:30.304Z,24.11
2019-06-15T11:21:59.995Z,23.77
2019-06-15T11:24:29.735Z,23.32
2019-06-15T11:26:59.369Z,22.93
2019-06-15T11:29:29.101Z,23.24
2019-06-15T11:31:58.829Z,23.63
2019-06-15T11:34:28.501Z,23.52
2019-06-15T11:36:58.255Z,23.48
2019-06-15T11:42:03.271Z,23.82
2019-06-15T11:44:32.988Z,23.42
2019-06-15T11:47:02.732Z,23.26
2019-06-15T11:49:32.510Z,23.81
2019-06-15T11:52:03.507Z,23.56
2019-06-15T11:54:33.307Z,23.82
2019-06-15T11:57:03.102Z,23.44
2019-06-15T11:59:33.908Z,23.45
2019-06-15T12:02:03.617Z,23.57
2019-06-15T12:04:33.627Z,23.57
2019-06-15T12:07:03.876Z,24.13
2019-06-15T12:09:33.764Z,24.04
2019-06-15T12:12:03.488Z,23.73
2019-06-15T12:14:33.302Z,23.73
2019-06-15T12:17:03.025Z,23.56
2019-06-15T12:19:33.018Z,24.24
2019-06-15T12:22:02.829Z,24.29
2019-06-15T12:24:32.686Z,24.71
2019-06-15T12:27:02.334Z,24.71
2019-06-15T12:29:33.179Z,24.05
2019-06-15T12:32:02.900Z,23.62
2019-06-15T12:34:32.694Z,23.12
2019-06-15T12:37:03.185Z,22.76
2019-06-15T12:39:32.988Z,23.70
2019-06-15T12:42:02.822Z,24.67
2019-06-15T12:44:32.592Z,24.88
2019-06-15T12:47:02.366Z,25.02
2019-06-15T12:49:32.382Z,24.98
2019-06-15T12:52:02.647Z,24.80
2019-06-15T12:54:32.399Z,24.73
2019-06-15T12:57:02.221Z,25.23
2019-06-15T12:59:32.331Z,25.29
2019-06-15T13:02:02.048Z,25.21
2019-06-15T13:04:31.954Z,25.03
2019-06-15T13:07:01.813Z,25.04
2019-06-15T13:09:33.554Z,25.15
2019-06-15T13:12:03.339Z,25.46
2019-06-15T13:14:33.262Z,25.02
2019-06-15T13:17:03.117Z,24.37
2019-06-15T13:19:33.064Z,24.49
2019-06-15T13:22:06.204Z,24.41
2019-06-15T13:24:34.425Z,25.49
2019-06-15T13:27:04.313Z,25.38
2019-06-15T13:29:34.247Z,25.55
2019-06-15T13:32:04.202Z,25.04
2019-06-15T13:34:34.014Z,25.04
2019-06-15T13:37:04.121Z,25.55
2019-06-15T13:39:33.976Z,25.46
2019-06-15T13:42:03.734Z,24.88
2019-06-15T13:44:33.509Z,24.92
2019-06-15T13:47:03.520Z,25.83
2019-06-15T13:49:33.309Z,25.88
2019-06-15T13:52:03.161Z,26.41
2019-06-15T13:54:34.475Z,25.45
2019-06-15T13:57:04.298Z,25.66
2019-06-15T13:59:34.555Z,25.70
2019-06-15T14:02:05.485Z,25.68
2019-06-15T14:04:35.267Z,25.92
2019-06-15T14:07:05.529Z,25.56
2019-06-15T14:09:35.243Z,26.08
2019-06-15T14:12:07.012Z,26.04
2019-06-15T14:14:37.381Z,25.97
2019-06-15T14:17:08.903Z,25.65
2019-06-15T14:19:38.822Z,26.07
2019-06-15T14:22:08.798Z,26.01
2019-06-15T14:24:38.615Z,25.95
2019-06-15T14:27:08.511Z,26.06
2019-06-15T14:29:39.131Z,26.02
2019-06-15T14:32:08.998Z,25.82
2019-06-15T14:34:39.873Z,25.89
2019-06-15T14:37:11.234Z,25.97
2019-06-15T14:39:41.092Z,25.97
2019-06-15T14:42:11.324Z,26.00
2019-06-15T14:44:41.113Z,25.88
2019-06-15T14:47:11.958Z,25.76
2019-06-15T14:49:41.792Z,25.66
2019-06-15T14:52:11.907Z,25.36
2019-06-15T14:54:41.664Z,25.40
2019-06-15T14:57:11.352Z,25.85
2019-06-15T14:59:55.382Z,25.33
2019-06-15T15:02:14.257Z,24.75
2019-06-15T15:04:44.270Z,25.32
2019-06-15T15:07:16.930Z,25.55
2019-06-15T15:09:49.925Z,25.47
2019-06-15T15:12:20.870Z,25.06
2019-06-15T15:14:50.648Z,25.60
2019-06-15T15:17:20.799Z,25.73
2019-06-15T15:19:50.785Z,25.43
2019-06-15T15:22:22.571Z,25.46
2019-06-15T15:24:52.234Z,25.34
2019-06-15T15:27:22.285Z,25.70
2019-06-15T15:29:52.076Z,25.87
2019-06-15T15:32:27.109Z,25.43
2019-06-15T15:34:56.014Z,25.53
2019-06-15T15:37:27.090Z,25.21
2019-06-15T15:39:57.034Z,25.49
2019-06-15T15:42:27.162Z,25.64
2019-06-15T15:44:57.111Z,25.65
2019-06-15T15:47:27.712Z,25.75
2019-06-15T15:49:57.767Z,25.05
2019-06-15T15:52:29.126Z,24.32
2019-06-15T15:54:58.822Z,24.05
2019-06-15T15:57:29.282Z,23.99
2019-06-15T15:59:59.049Z,24.00
2019-06-15T16:02:44.547Z,24.12
2019-06-15T16:05:00.106Z,24.09
2019-06-15T16:07:30.046Z,24.35
2019-06-15T16:09:59.819Z,24.25
2019-06-15T16:12:29.659Z,24.15
2019-06-15T16:14:59.408Z,23.96
2019-06-15T16:17:29.117Z,23.91
2019-06-15T16:19:58.930Z,23.75
2019-06-15T16:22:28.791Z,23.85
2019-06-15T16:24:58.540Z,24.13
2019-06-15T16:27:29.189Z,24.50
2019-06-15T16:29:58.959Z,24.58
2019-06-15T16:32:28.985Z,24.59
2019-06-15T16:34:59.042Z,24.53
2019-06-15T16:37:28.893Z,24.28
2019-06-15T16:39:58.956Z,24.13
2019-06-15T16:42:28.713Z,24.10
2019-06-15T16:44:58.444Z,24.21
2019-06-15T16:47:28.256Z,24.03
2019-06-15T16:49:57.888Z,23.90
2019-06-15T16:52:27.647Z,23.94
2019-06-15T16:54:57.401Z,23.70
2019-06-15T16:57:28.159Z,23.83
2019-06-15T16:59:57.969Z,23.77
2019-06-15T17:02:27.695Z,23.60
2019-06-15T17:04:57.374Z,23.50
2019-06-15T17:07:27.141Z,23.44
2019-06-15T17:09:57.008Z,23.44
2019-06-15T17:12:26.668Z,23.44
2019-06-15T17:14:56.356Z,23.42
2019-06-15T17:17:26.710Z,23.55
2019-06-15T17:19:57.005Z,23.39
2019-06-15T17:22:27.793Z,23.42
2019-06-15T17:24:57.462Z,23.37
2019-06-15T17:27:27.542Z,23.11
2019-06-15T17:29:57.981Z,23.15
2019-06-15T17:32:27.644Z,23.00
2019-06-15T17:34:57.310Z,23.06
2019-06-15T17:37:27.069Z,23.07
2019-06-15T17:39:56.733Z,23.00
2019-06-15T17:42:26.526Z,22.75
2019-06-15T17:44:57.201Z,22.76
2019-06-15T17:47:27.027Z,22.74
2019-06-15T17:49:56.827Z,22.89
2019-06-15T17:52:27.353Z,22.60
2019-06-15T17:54:57.176Z,22.49
2019-06-15T17:57:27.445Z,22.67
2019-06-15T17:59:57.438Z,22.31
2019-06-15T18:02:27.328Z,22.04
2019-06-15T18:04:57.019Z,22.03
2019-06-15T18:07:26.704Z,22.08
2019-06-15T18:09:56.428Z,22.11
2019-06-15T18:12:27.581Z,22.07
2019-06-15T18:14:58.375Z,22.01
2019-06-15T18:17:28.036Z,21.82
2019-06-15T18:19:57.888Z,21.93
2019-06-15T18:22:27.589Z,21.95
2019-06-15T18:24:57.366Z,22.10
2019-06-15T18:27:27.922Z,22.18
2019-06-15T18:29:57.647Z,22.19
2019-06-15T18:32:27.951Z,22.17
2019-06-15T18:34:57.629Z,22.16
2019-06-15T18:37:27.448Z,22.20
2019-06-15T18:39:57.157Z,22.33
2019-06-15T18:42:27.350Z,22.32
2019-06-15T18:44:58.884Z,22.19
2019-06-15T18:47:28.714Z,21.99
2019-06-15T18:49:58.507Z,22.02
2019-06-15T18:52:28.254Z,22.10
2019-06-15T18:54:57.956Z,22.07
2019-06-15T18:57:27.632Z,22.09
2019-06-15T18:59:57.426Z,21.94
2019-06-15T19:02:27.195Z,21.96
2019-06-15T19:04:56.867Z,21.88
2019-06-15T19:07:27.001Z,21.83
2019-06-15T19:09:56.773Z,21.75
2019-06-15T19:12:26.517Z,21.76
2019-06-15T19:14:56.272Z,21.75
2019-06-15T19:17:25.993Z,21.68
2019-06-15T19:19:57.242Z,21.40
2019-06-15T19:22:27.184Z,21.29
2019-06-15T19:24:57.369Z,21.25
2019-06-15T19:27:27.103Z,21.18
2019-06-15T19:29:56.752Z,21.13
2019-06-15T19:32:27.283Z,20.97
2019-06-15T19:34:57.081Z,20.95
2019-06-15T19:37:26.946Z,20.93
2019-06-15T19:39:56.648Z,20.84
2019-06-15T19:42:26.355Z,20.78
2019-06-15T19:44:56.271Z,20.80
2019-06-15T19:47:26.632Z,20.73
2019-06-15T19:49:56.965Z,20.60
2019-06-15T19:52:26.704Z,20.60
2019-06-15T19:54:56.492Z,20.52
2019-06-15T19:57:27.126Z,20.54
2019-06-15T19:59:58.242Z,20.47
2019-06-15T20:02:28.921Z,20.34
2019-06-15T20:05:03.665Z,20.27
2019-06-15T20:07:31.174Z,20.18
2019-06-15T20:10:00.866Z,20.09
2019-06-15T20:12:31.802Z,19.93
2019-06-15T20:15:01.668Z,19.92
2019-06-15T20:17:31.347Z,19.89
2019-06-15T20:20:01.355Z,19.89
2019-06-15T20:22:32.099Z,19.81
2019-06-15T20:25:01.951Z,19.79
2019-06-15T20:27:31.574Z,19.84
2019-06-15T20:30:01.305Z,19.70
2019-06-15T20:32:31.135Z,19.51
2019-06-15T20:35:16.233Z,19.46
2019-06-15T20:37:32.710Z,19.62
2019-06-15T20:40:02.482Z,19.76
2019-06-15T20:42:32.279Z,19.73
2019-06-15T20:45:02.358Z,19.75
2019-06-15T20:47:32.143Z,19.57
2019-06-15T20:50:02.112Z,19.58
2019-06-15T20:52:33.078Z,19.63
2019-06-15T20:55:06.454Z,19.62
2019-06-15T20:57:35.554Z,19.40
2019-06-15T21:00:06.519Z,19.54
2019-06-15T21:02:37.458Z,19.52
2019-06-15T21:05:08.133Z,19.47
2019-06-15T21:07:37.909Z,19.53
2019-06-15T21:10:08.252Z,19.46
2019-06-15T21:12:39.205Z,19.49
2019-06-15T21:15:10.876Z,19.38
2019-06-15T21:17:41.650Z,19.37
2019-06-15T21:20:11.458Z,19.28
2019-06-15T21:22:41.360Z,19.24
2019-06-15T21:25:12.247Z,19.11
2019-06-15T21:27:42.042Z,18.90
2019-06-15T21:30:12.271Z,18.93
2019-06-15T21:32:42.044Z,18.95
2019-06-15T21:35:13.003Z,18.85
2019-06-15T21:37:42.656Z,18.92
2019-06-15T21:40:15.284Z,18.96
2019-06-15T21:42:46.845Z,19.00
2019-06-15T21:45:17.668Z,19.00
2019-06-15T21:47:48.535Z,18.98
2019-06-15T21:50:18.284Z,18.79
2019-06-15T21:52:48.056Z,18.79
2019-06-15T21:55:17.817Z,18.88
2019-06-15T21:57:47.553Z,18.76
2019-06-15T22:00:21.167Z,18.81
2019-06-15T22:02:52.660Z,18.77
2019-06-15T22:05:22.651Z,18.81
2019-06-15T22:07:52.961Z,18.51
2019-06-15T22:10:23.433Z,18.54
2019-06-15T22:12:53.397Z,18.62
2019-06-15T22:15:23.236Z,18.58
2019-06-15T22:17:54.001Z,18.64
2019-06-15T22:20:26.212Z,18.64
2019-06-15T22:22:56.009Z,18.26
2019-06-15T22:25:26.521Z,18.35
2019-06-15T22:27:57.248Z,18.44
2019-06-15T22:30:27.705Z,18.23
2019-06-15T22:32:57.647Z,18.06
2019-06-15T22:35:27.787Z,17.98
2019-06-15T22:37:57.587Z,18.33
2019-06-15T22:40:28.041Z,18.49
2019-06-15T22:42:59.133Z,18.15
2019-06-15T22:45:30.469Z,18.25
2019-06-15T22:48:00.238Z,18.36
2019-06-15T22:50:31.201Z,18.14
2019-06-15T22:53:03.877Z,18.23
2019-06-15T22:55:32.608Z,18.31
2019-06-15T22:58:02.462Z,18.64
2019-06-15T23:00:34.015Z,18.74
2019-06-15T23:03:06.075Z,18.63
2019-06-15T23:05:35.470Z,18.54
2019-06-15T23:08:06.954Z,18.81
2019-06-15T23:10:36.909Z,18.81
2019-06-15T23:13:06.659Z,18.83
2019-06-15T23:15:37.177Z,18.67
2019-06-15T23:18:07.409Z,18.54
2019-06-15T23:20:37.204Z,18.81
2019-06-15T23:23:08.001Z,18.76
2019-06-15T23:25:37.755Z,18.84
2019-06-15T23:28:07.487Z,18.93
2019-06-15T23:30:37.231Z,18.92
2019-06-15T23:33:06.876Z,18.76
2019-06-15T23:35:42.207Z,18.78
2019-06-15T23:38:11.985Z,18.80
2019-06-15T23:40:41.708Z,18.78
2019-06-15T23:43:11.432Z,18.75
2019-06-15T23:45:41.054Z,18.66
2019-06-15T23:48:10.962Z,18.64
2019-06-15T23:50:40.615Z,18.52
2019-06-15T23:53:10.277Z,18.35
2019-06-15T23:55:40.064Z,18.12
2019-06-15T23:58:09.947Z,17.70
